createdAt,value
2018-12-19T00:01:48.073Z,20.95
2018-12-19T00:04:17.901Z,19.40
2018-12-19T00:06:48.195Z,20.55
2018-12-19T00:09:18.179Z,17.00
2018-12-19T00:11:48.024Z,17.80
2018-12-19T00:14:18.025Z,21.87
2018-12-19T00:16:48.025Z,22.80
2018-12-19T00:19:17.887Z,22.35
2018-12-19T00:21:47.773Z,20.62
2018-12-19T00:24:17.925Z,21.07
2018-12-19T00:26:47.804Z,19.35
2018-12-19T00:29:17.702Z,18.37
2018-12-19T00:31:47.605Z,20.17
2018-12-19T00:34:17.461Z,21.37
2018-12-19T00:36:47.765Z,19.55
2018-12-19T00:39:17.619Z,22.20
2018-12-19T00:41:47.619Z,33.90
2018-12-19T00:44:17.518Z,27.45
2018-12-19T00:46:47.501Z,24.67
2018-12-19T00:49:17.331Z,21.65
2018-12-19T00:51:47.248Z,22.93
2018-12-19T00:54:17.385Z,25.37
2018-12-19T00:56:47.265Z,22.58
2018-12-19T00:59:17.114Z,21.93
2018-12-19T01:01:47.057Z,23.40
2018-12-19T01:04:16.905Z,20.97
2018-12-19T01:06:46.819Z,20.23
2018-12-19T01:09:16.715Z,22.30
2018-12-19T01:11:46.623Z,23.47
2018-12-19T01:14:16.465Z,22.35
2018-12-19T01:16:46.430Z,22.67
2018-12-19T01:19:16.290Z,24.70
2018-12-19T01:21:46.145Z,22.62
2018-12-19T01:24:16.125Z,23.63
2018-12-19T01:26:45.993Z,21.52
2018-12-19T01:29:16.089Z,27.52
2018-12-19T01:31:45.988Z,21.35
2018-12-19T01:34:15.845Z,22.10
2018-12-19T01:36:45.723Z,23.45
2018-12-19T01:39:15.566Z,21.57
2018-12-19T01:41:45.514Z,27.05
2018-12-19T01:44:15.369Z,20.68
2018-12-19T01:46:45.425Z,23.20
2018-12-19T01:49:15.225Z,21.75
2018-12-19T01:51:45.182Z,26.48
2018-12-19T01:54:15.570Z,28.77
2018-12-19T01:56:45.475Z,23.92
2018-12-19T01:59:15.392Z,23.50
2018-12-19T02:01:45.329Z,22.70
2018-12-19T02:04:15.835Z,25.27
2018-12-19T02:06:46.181Z,22.27
2018-12-19T02:09:16.020Z,25.10
2018-12-19T02:11:46.426Z,22.42
2018-12-19T02:14:16.930Z,25.88
2018-12-19T02:16:46.796Z,23.22
2018-12-19T02:19:16.748Z,25.25
2018-12-19T02:21:46.625Z,22.37
2018-12-19T02:24:16.941Z,19.83
2018-12-19T02:26:47.373Z,23.55
2018-12-19T02:29:17.309Z,21.93
2018-12-19T02:31:47.213Z,21.73
2018-12-19T02:34:17.519Z,21.75
2018-12-19T02:36:47.358Z,24.75
2018-12-19T02:39:18.129Z,22.62
2018-12-19T02:41:48.081Z,22.13
2018-12-19T02:44:17.949Z,23.62
2018-12-19T02:46:48.593Z,23.77
2018-12-19T02:49:18.951Z,20.05
2018-12-19T02:51:48.823Z,21.77
2018-12-19T02:54:19.239Z,22.30
2018-12-19T02:56:49.569Z,20.50
2018-12-19T02:59:19.429Z,19.20
2018-12-19T03:01:49.291Z,20.57
2018-12-19T03:04:20.113Z,20.75
2018-12-19T03:06:50.001Z,21.25
2018-12-19T03:09:19.865Z,22.03
2018-12-19T03:11:49.822Z,19.30
2018-12-19T03:14:19.698Z,19.65
2018-12-19T03:16:49.521Z,20.88
2018-12-19T03:19:19.494Z,21.00
2018-12-19T03:21:49.377Z,21.85
2018-12-19T03:24:19.265Z,16.77
2018-12-19T03:26:49.182Z,19.07
2018-12-19T03:29:19.104Z,17.98
2018-12-19T03:31:48.978Z,22.93
2018-12-19T03:34:18.833Z,21.52
2018-12-19T03:36:48.736Z,19.80
2018-12-19T03:39:18.577Z,19.73
2018-12-19T03:41:48.513Z,15.93
2018-12-19T03:44:18.401Z,18.92
2018-12-19T03:46:48.341Z,16.65
2018-12-19T03:49:18.892Z,20.27
2018-12-19T03:51:49.075Z,17.12
2018-12-19T03:54:19.174Z,18.30
2018-12-19T03:56:49.557Z,18.15
2018-12-19T03:59:19.405Z,21.33
2018-12-19T04:01:49.859Z,17.73
2018-12-19T04:04:19.714Z,15.18
2018-12-19T04:06:49.585Z,17.75
2018-12-19T04:09:19.439Z,18.23
2018-12-19T04:11:49.347Z,17.35
2018-12-19T04:14:19.293Z,16.87
2018-12-19T04:16:49.177Z,17.62
2018-12-19T04:19:19.012Z,16.87
2018-12-19T04:21:49.490Z,16.05
2018-12-19T04:24:19.347Z,14.87
2018-12-19T04:26:49.346Z,18.62
2018-12-19T04:29:19.188Z,18.35
2018-12-19T04:31:49.080Z,17.62
2018-12-19T04:34:18.915Z,21.15
2018-12-19T04:36:49.736Z,17.85
2018-12-19T04:39:19.643Z,20.20
2018-12-19T04:41:49.636Z,19.42
2018-12-19T04:44:19.489Z,18.05
2018-12-19T04:46:49.377Z,15.90
2018-12-19T04:49:19.646Z,17.23
2018-12-19T04:51:49.519Z,16.20
2018-12-19T04:54:19.342Z,17.40
2018-12-19T04:56:49.183Z,19.00
2018-12-19T04:59:19.035Z,19.27
2018-12-19T05:01:48.923Z,16.67
2018-12-19T05:04:19.276Z,16.45
2018-12-19T05:06:49.835Z,16.48
2018-12-19T05:09:19.805Z,16.10
2018-12-19T05:11:49.773Z,18.23
2018-12-19T05:14:19.989Z,13.28
2018-12-19T05:16:49.865Z,16.77
2018-12-19T05:19:20.597Z,17.57
2018-12-19T05:21:50.917Z,17.60
2018-12-19T05:24:20.862Z,18.37
2018-12-19T05:26:50.789Z,17.40
2018-12-19T05:29:20.691Z,14.85
2018-12-19T05:31:50.526Z,16.37
2018-12-19T05:34:20.489Z,16.00
2018-12-19T05:36:50.405Z,17.67
2018-12-19T05:39:20.282Z,16.50
2018-12-19T05:41:50.186Z,18.40
2018-12-19T05:44:20.053Z,17.65
2018-12-19T05:46:49.925Z,19.30
2018-12-19T05:49:20.029Z,17.30
2018-12-19T05:51:49.901Z,14.38
2018-12-19T05:54:19.746Z,15.90
2018-12-19T05:56:50.193Z,16.62
2018-12-19T05:59:20.052Z,16.12
2018-12-19T06:01:50.011Z,15.72
2018-12-19T06:04:19.905Z,16.07
2018-12-19T06:06:49.798Z,15.80
2018-12-19T06:09:19.654Z,16.77
2018-12-19T06:11:49.521Z,16.77
2018-12-19T06:14:19.388Z,16.30
2018-12-19T06:16:49.385Z,16.27
2018-12-19T06:19:19.267Z,15.50
2018-12-19T06:21:49.128Z,18.30
2018-12-19T06:24:18.950Z,17.43
2018-12-19T06:26:48.829Z,15.00
2018-12-19T06:29:18.678Z,14.90
2018-12-19T06:31:48.569Z,12.98
2018-12-19T06:34:18.449Z,14.98
2018-12-19T06:36:48.918Z,13.88
2018-12-19T06:39:18.971Z,13.70
2018-12-19T06:41:48.861Z,13.30
2018-12-19T06:44:19.313Z,15.68
2018-12-19T06:46:49.569Z,15.75
2018-12-19T06:49:19.493Z,17.98
2018-12-19T06:51:49.645Z,15.98
2018-12-19T06:54:19.509Z,16.70
2018-12-19T06:56:49.397Z,15.13
2018-12-19T06:59:19.237Z,14.53
2018-12-19T07:01:49.089Z,12.70
2018-12-19T07:04:18.937Z,18.20
2018-12-19T07:06:49.637Z,11.57
2018-12-19T07:09:19.691Z,15.50
2018-12-19T07:11:49.569Z,16.07
2018-12-19T07:14:19.434Z,15.75
2018-12-19T07:16:49.301Z,17.42
2018-12-19T07:19:19.141Z,17.07
2018-12-19T07:21:49.078Z,15.30
2018-12-19T07:24:18.988Z,12.40
2018-12-19T07:26:48.861Z,12.18
2018-12-19T07:29:18.784Z,12.78
2018-12-19T07:31:49.170Z,14.50
2018-12-19T07:34:19.002Z,13.88
2018-12-19T07:36:48.848Z,15.95
2018-12-19T07:39:19.124Z,16.20
2018-12-19T07:41:49.073Z,13.62
2018-12-19T07:44:18.938Z,14.28
2018-12-19T07:46:48.785Z,12.37
2018-12-19T07:49:19.173Z,16.45
2018-12-19T07:51:49.028Z,15.60
2018-12-19T07:54:19.450Z,14.10
2018-12-19T07:56:49.905Z,15.32
2018-12-19T07:59:19.753Z,15.08
2018-12-19T08:01:49.612Z,13.60
2018-12-19T08:04:19.645Z,13.30
2018-12-19T08:06:50.007Z,11.80
2018-12-19T08:09:20.560Z,15.77
2018-12-19T08:11:50.454Z,21.30
2018-12-19T08:14:20.463Z,21.82
2018-12-19T08:16:50.350Z,16.15
2018-12-19T08:19:21.715Z,13.70
2018-12-19T08:21:51.605Z,12.00
2018-12-19T08:24:21.462Z,12.10
2018-12-19T08:26:51.374Z,10.65
2018-12-19T08:29:21.260Z,9.95
2018-12-19T08:31:51.232Z,11.60
2018-12-19T08:34:21.214Z,11.73
2018-12-19T08:36:51.042Z,11.00
2018-12-19T08:39:21.256Z,11.20
2018-12-19T08:41:51.460Z,12.98
2018-12-19T08:44:21.292Z,11.75
2018-12-19T08:46:51.128Z,14.25
2018-12-19T08:49:20.923Z,15.23
2018-12-19T08:51:52.742Z,14.18
2018-12-19T08:54:22.576Z,12.93
2018-12-19T08:56:52.416Z,14.43
2018-12-19T08:59:22.267Z,10.63
2018-12-19T09:01:52.122Z,11.55
2018-12-19T09:04:25.813Z,14.90
2018-12-19T09:06:53.844Z,12.30
2018-12-19T09:09:23.708Z,11.00
2018-12-19T09:11:53.556Z,8.95
2018-12-19T09:14:23.475Z,9.70
2018-12-19T09:16:53.308Z,11.45
2018-12-19T09:19:23.180Z,10.85
2018-12-19T09:21:53.110Z,8.48
2018-12-19T09:24:23.513Z,8.90
2018-12-19T09:26:53.293Z,9.35
2018-12-19T09:29:23.107Z,10.80
2018-12-19T09:31:53.671Z,8.98
2018-12-19T09:34:23.669Z,7.62
2018-12-19T09:36:53.528Z,8.55
2018-12-19T09:39:23.403Z,9.93
2018-12-19T09:41:53.499Z,9.80
2018-12-19T09:44:23.325Z,7.87
2018-12-19T09:46:53.186Z,11.73
2018-12-19T09:49:23.083Z,10.88
2018-12-19T09:51:52.993Z,8.63
2018-12-19T09:54:22.822Z,8.87
2018-12-19T09:56:53.493Z,8.60
2018-12-19T09:59:23.524Z,8.13
2018-12-19T10:01:53.456Z,9.88
2018-12-19T10:04:23.383Z,11.33
2018-12-19T10:06:53.310Z,8.75
2018-12-19T10:09:23.338Z,7.70
2018-12-19T10:11:53.239Z,12.80
2018-12-19T10:14:23.145Z,9.93
2018-12-19T10:16:52.937Z,8.50
2018-12-19T10:19:22.763Z,10.15
2018-12-19T10:21:53.190Z,8.85
2018-12-19T10:24:27.764Z,10.53
2018-12-19T10:26:57.567Z,9.28
2018-12-19T10:29:27.390Z,7.42
2018-12-19T10:31:57.183Z,8.58
2018-12-19T10:34:27.013Z,6.20
2018-12-19T10:36:58.827Z,8.93
2018-12-19T10:39:28.630Z,7.57
2018-12-19T10:41:58.456Z,5.97
2018-12-19T10:44:28.380Z,6.83
2018-12-19T10:46:58.291Z,6.85
2018-12-19T10:49:28.228Z,8.73
2018-12-19T10:51:58.108Z,5.30
2018-12-19T10:54:27.935Z,8.00
2018-12-19T10:56:57.854Z,7.33
2018-12-19T10:59:27.798Z,7.72
2018-12-19T11:01:57.658Z,8.10
2018-12-19T11:04:27.472Z,6.67
2018-12-19T11:06:57.294Z,8.55
2018-12-19T11:09:27.238Z,7.57
2018-12-19T11:11:57.064Z,7.45
2018-12-19T11:14:27.126Z,8.65
2018-12-19T11:16:57.244Z,8.38
2018-12-19T11:19:27.104Z,8.98
2018-12-19T11:21:57.578Z,9.73
2018-12-19T11:24:27.450Z,7.87
2018-12-19T11:26:57.438Z,7.95
2018-12-19T11:29:28.400Z,6.30
2018-12-19T11:31:58.663Z,9.95
2018-12-19T11:34:28.528Z,8.20
2018-12-19T11:36:58.465Z,7.60
2018-12-19T11:39:28.468Z,9.50
2018-12-19T11:42:05.011Z,6.58
2018-12-19T11:44:35.093Z,8.53
2018-12-19T11:47:04.945Z,18.05
2018-12-19T11:49:34.897Z,9.80
2018-12-19T11:52:04.852Z,11.18
2018-12-19T11:54:34.685Z,6.87
2018-12-19T11:57:04.892Z,9.43
2018-12-19T11:59:35.198Z,10.65
2018-12-19T12:02:05.390Z,9.38
2018-12-19T12:04:36.027Z,14.25
2018-12-19T12:07:06.551Z,11.50
2018-12-19T12:09:36.448Z,12.90
2018-12-19T12:12:06.375Z,11.75
2018-12-19T12:14:37.100Z,8.90
2018-12-19T12:17:08.822Z,9.28
2018-12-19T12:19:38.901Z,9.43
2018-12-19T12:22:08.777Z,11.15
2018-12-19T13:58:48.110Z,15.65
2018-12-19T14:01:23.227Z,20.50
2018-12-19T14:03:58.505Z,14.15
2018-12-19T14:06:33.734Z,15.25
2018-12-19T14:09:08.890Z,19.10
2018-12-19T14:11:44.268Z,16.80
2018-12-19T14:14:19.447Z,13.00
2018-12-19T14:16:54.592Z,19.53
2018-12-19T14:19:29.932Z,15.30
2018-12-19T14:22:05.365Z,17.00
2018-12-19T14:24:42.018Z,21.57
2018-12-19T14:27:17.252Z,17.80
2018-12-19T14:29:52.291Z,17.98
2018-12-19T14:32:27.848Z,17.50
2018-12-19T14:35:02.885Z,12.95
2018-12-19T14:37:38.334Z,13.85
2018-12-19T14:40:14.251Z,12.63
2018-12-19T14:42:49.462Z,9.40
2018-12-19T14:45:24.611Z,14.95
2018-12-19T14:47:59.968Z,8.68
2018-12-19T14:50:35.163Z,9.68
2018-12-19T14:53:10.278Z,8.63
2018-12-19T14:55:45.530Z,12.05
2018-12-19T14:58:20.625Z,13.18
2018-12-19T15:00:55.817Z,7.15
2018-12-19T15:03:31.132Z,10.53
2018-12-19T15:06:06.509Z,9.35
2018-12-19T15:08:42.076Z,10.40
2018-12-19T15:11:17.014Z,11.70
2018-12-19T15:13:52.292Z,8.60
2018-12-19T15:16:27.588Z,9.57
2018-12-19T15:19:02.948Z,10.20
2018-12-19T15:21:38.140Z,16.77
2018-12-19T15:24:13.365Z,13.98
2018-12-19T15:26:48.505Z,13.25
2018-12-19T15:29:24.587Z,11.15
2018-12-19T15:31:59.905Z,11.00
2018-12-19T15:34:35.007Z,8.85
2018-12-19T15:37:10.262Z,12.63
2018-12-19T15:39:45.501Z,9.25
2018-12-19T15:42:20.695Z,9.35
2018-12-19T15:44:56.014Z,10.55
2018-12-19T15:47:31.586Z,13.07
2018-12-19T15:50:08.036Z,10.38
2018-12-19T15:52:43.186Z,11.53
2018-12-19T15:55:18.340Z,10.93
2018-12-19T15:57:54.138Z,14.45
2018-12-19T16:00:29.450Z,10.10
2018-12-19T16:03:05.176Z,18.13
2018-12-19T16:05:40.539Z,11.08
2018-12-19T16:08:15.769Z,9.43
2018-12-19T16:10:51.026Z,13.55
2018-12-19T16:13:26.449Z,12.45
2018-12-19T16:16:02.035Z,15.03
2018-12-19T16:18:37.031Z,14.98
2018-12-19T16:21:12.326Z,14.33
2018-12-19T16:23:47.353Z,11.03
2018-12-19T16:26:22.392Z,18.40
2018-12-19T16:28:57.700Z,14.35
2018-12-19T16:31:33.141Z,13.90
2018-12-19T16:34:08.280Z,17.52
2018-12-19T16:36:43.491Z,15.28
2018-12-19T16:39:18.571Z,14.47
2018-12-19T16:41:53.791Z,14.43
2018-12-19T16:44:29.048Z,13.18
2018-12-19T16:47:04.374Z,16.20
2018-12-19T16:49:39.461Z,14.98
2018-12-19T16:52:14.596Z,16.27
2018-12-19T16:54:49.988Z,20.00
2018-12-19T16:57:25.121Z,16.40
2018-12-19T17:00:00.295Z,15.40
2018-12-19T17:02:35.576Z,15.03
2018-12-19T17:05:10.636Z,15.30
2018-12-19T17:07:45.793Z,19.62
2018-12-19T17:10:20.930Z,20.88
2018-12-19T17:12:56.022Z,22.27
2018-12-19T17:15:31.408Z,22.77
2018-12-19T17:18:06.724Z,19.80
2018-12-19T17:20:42.255Z,19.52
2018-12-19T17:23:18.257Z,18.77
2018-12-19T17:25:53.436Z,19.60
2018-12-19T17:28:28.533Z,19.85
2018-12-19T17:31:03.732Z,18.27
2018-12-19T17:33:38.849Z,21.87
2018-12-19T17:36:14.673Z,20.97
2018-12-19T17:38:49.892Z,24.55
2018-12-19T17:41:25.060Z,21.55
2018-12-19T17:44:00.286Z,21.87
2018-12-19T17:46:35.374Z,22.20
2018-12-19T17:49:10.652Z,21.05
2018-12-19T17:51:45.620Z,18.77
2018-12-19T17:54:20.725Z,17.60
2018-12-19T17:56:56.163Z,17.27
2018-12-19T17:59:31.504Z,19.73
2018-12-19T18:02:06.763Z,18.00
2018-12-19T18:04:42.412Z,16.05
2018-12-19T18:07:17.671Z,18.02
2018-12-19T18:09:52.905Z,18.40
2018-12-19T18:12:28.081Z,17.82
2018-12-19T18:15:03.377Z,17.70
2018-12-19T18:17:38.579Z,15.67
2018-12-19T18:20:13.962Z,20.32
2018-12-19T18:22:49.358Z,21.10
2018-12-19T18:25:25.152Z,21.93
2018-12-19T18:28:00.350Z,20.05
2018-12-19T18:30:35.679Z,24.55
2018-12-19T18:33:11.050Z,21.27
2018-12-19T18:35:46.287Z,22.98
2018-12-19T18:38:22.365Z,22.17
2018-12-19T18:40:57.832Z,23.25
2018-12-19T18:43:32.902Z,15.08
2018-12-19T18:46:08.170Z,16.57
2018-12-19T18:48:43.632Z,19.02
2018-12-19T18:51:18.653Z,23.90
2018-12-19T18:53:53.872Z,19.70
2018-12-19T18:56:29.155Z,21.40
2018-12-19T18:59:04.501Z,19.40
2018-12-19T19:01:39.857Z,19.20
2018-12-19T19:04:15.153Z,26.27
2018-12-19T19:06:50.623Z,24.75
2018-12-19T19:09:26.087Z,23.83
2018-12-19T19:12:01.641Z,22.52
2018-12-19T19:14:37.087Z,58.80
2018-12-19T19:17:12.659Z,36.73
2018-12-19T19:19:47.878Z,24.37
2018-12-19T19:22:23.406Z,17.70
2018-12-19T19:24:59.733Z,25.77
2018-12-19T19:27:35.011Z,25.43
2018-12-19T19:30:11.018Z,33.63
2018-12-19T19:32:46.318Z,24.60
2018-12-19T19:35:22.061Z,25.30
2018-12-19T19:37:57.382Z,20.85
2018-12-19T19:40:32.932Z,20.30
2018-12-19T19:43:08.469Z,27.67
2018-12-19T19:45:43.625Z,22.42
2018-12-19T19:48:18.966Z,19.17
2018-12-19T19:50:54.202Z,20.15
2018-12-19T19:53:29.768Z,15.53
2018-12-19T19:56:05.275Z,17.12
2018-12-19T19:58:40.469Z,18.65
2018-12-19T20:01:15.750Z,20.13
2018-12-19T20:03:51.108Z,21.30
2018-12-19T20:06:26.584Z,22.73
2018-12-19T20:09:02.362Z,22.73
2018-12-19T20:11:37.494Z,22.85
2018-12-19T20:14:12.780Z,19.67
2018-12-19T20:16:53.575Z,20.00
2018-12-19T20:19:29.311Z,19.95
2018-12-19T20:22:05.733Z,22.27
2018-12-19T20:24:41.084Z,18.92
2018-12-19T20:27:16.485Z,18.23
2018-12-19T20:29:51.719Z,23.00
2018-12-19T20:32:27.529Z,21.93
2018-12-19T20:35:03.339Z,24.12
2018-12-19T20:37:38.748Z,20.55
2018-12-19T20:40:14.386Z,23.67
2018-12-19T20:42:49.568Z,19.77
2018-12-19T20:45:25.038Z,21.17
2018-12-19T20:48:00.888Z,22.40
2018-12-19T20:50:37.279Z,26.23
2018-12-19T20:53:12.643Z,24.57
2018-12-19T20:55:48.174Z,29.10
2018-12-19T20:58:23.289Z,22.40
2018-12-19T21:00:58.862Z,22.30
2018-12-19T21:03:34.953Z,22.30
2018-12-19T21:06:10.349Z,22.50
2018-12-19T21:08:46.263Z,24.18
2018-12-19T21:11:21.630Z,23.02
2018-12-19T21:13:57.110Z,21.55
2018-12-19T21:16:37.988Z,23.23
2018-12-19T21:19:13.349Z,20.88
2018-12-19T21:21:48.422Z,21.02
2018-12-19T21:24:24.609Z,20.20
2018-12-19T21:26:59.881Z,21.62
2018-12-19T21:29:35.217Z,20.25
2018-12-19T21:32:10.760Z,24.30
2018-12-19T21:34:46.248Z,20.70
2018-12-19T21:37:21.430Z,18.75
2018-12-19T21:39:56.774Z,18.10
2018-12-19T21:42:32.145Z,20.88
2018-12-19T21:45:07.830Z,15.53
2018-12-19T21:47:43.375Z,20.95
2018-12-19T21:50:19.410Z,24.07
2018-12-19T21:52:54.638Z,20.32
2018-12-19T21:55:30.013Z,25.45
2018-12-19T21:58:05.516Z,20.37
2018-12-19T22:00:41.357Z,25.10
2018-12-19T22:03:16.805Z,21.00
2018-12-19T22:05:52.272Z,18.12
2018-12-19T22:08:28.217Z,17.23
2018-12-19T22:11:03.867Z,18.20
2018-12-19T22:13:39.355Z,15.60
2018-12-19T22:16:20.002Z,16.13
2018-12-19T22:18:57.306Z,16.87
2018-12-19T22:21:32.861Z,16.90
2018-12-19T22:24:08.481Z,17.87
2018-12-19T22:26:43.742Z,15.05
2018-12-19T22:29:19.197Z,15.13
2018-12-19T22:31:54.466Z,16.63
2018-12-19T22:34:29.873Z,16.80
2018-12-19T22:37:05.319Z,19.17
2018-12-19T22:39:40.814Z,12.50
2018-12-19T22:42:16.399Z,16.87
2018-12-19T22:44:51.813Z,14.33
2018-12-19T22:47:28.072Z,14.83
2018-12-19T22:50:03.766Z,16.07
2018-12-19T22:52:39.233Z,14.70
2018-12-19T22:55:14.808Z,18.67
2018-12-19T22:57:50.037Z,15.05
2018-12-19T23:00:25.189Z,17.85
2018-12-19T23:03:05.784Z,13.43
2018-12-19T23:05:51.875Z,17.05
2018-12-19T23:08:26.947Z,11.48
2018-12-19T23:11:02.453Z,15.60
2018-12-19T23:13:38.073Z,13.20
2018-12-19T23:16:13.369Z,11.00
2018-12-19T23:18:48.812Z,10.48
2018-12-19T23:21:24.473Z,12.18
2018-12-19T23:23:59.778Z,9.78
2018-12-19T23:26:35.262Z,11.12
2018-12-19T23:29:10.446Z,10.05
2018-12-19T23:31:45.920Z,13.65
2018-12-19T23:34:22.086Z,13.72
2018-12-19T23:36:57.369Z,10.43
2018-12-19T23:39:32.609Z,12.10
2018-12-19T23:42:07.770Z,12.47
2018-12-19T23:44:43.392Z,11.48
2018-12-19T23:47:18.527Z,10.97
2018-12-19T23:49:53.594Z,10.28
2018-12-19T23:52:28.606Z,9.85
2018-12-19T23:55:05.533Z,9.75
2018-12-19T23:57:40.688Z,12.73
